Time;durP1;ratioP1;P1;durP2;ratioP2;P2;SDS_P1;SDS_P2;PMS_P1;PMS_P2;Temp;Humidity;BMP_temperature;BMP_pressure;BME280_temperature;BME280_humidity;BME280_pressure;Samples;Min_cycle;Max_cycle;Signal;HPM_P1;HPM_P2
2022/02/06 00:00:59;;;;;;;16.67;2.47;;;7.40;99.90;;;;;;5015051;28;20033;-95
2022/02/06 00:03:26;;;;;;;12.85;2.50;;;7.40;99.90;;;;;;5014888;28;20040;-94
2022/02/06 00:05:52;;;;;;;12.77;3.17;;;7.40;99.90;;;;;;5012427;28;20034;-92
2022/02/06 00:08:18;;;;;;;13.13;2.45;;;7.40;99.90;;;;;;5013150;28;20030;-94
2022/02/06 00:10:44;;;;;;;13.63;2.10;;;7.40;99.90;;;;;;5015913;28;20017;-94
2022/02/06 00:13:09;;;;;;;12.40;2.92;;;7.40;99.90;;;;;;5031012;28;20509;-94
2022/02/06 00:15:35;;;;;;;13.90;3.78;;;7.40;99.90;;;;;;5014930;28;20030;-93
2022/02/06 00:18:01;;;;;;;12.65;2.35;;;7.40;99.90;;;;;;5010823;28;20076;-95
2022/02/06 00:20:32;;;;;;;11.98;2.13;;;7.40;99.90;;;;;;5012039;28;20030;-95
2022/02/06 00:23:02;;;;;;;16.13;2.72;;;7.40;99.90;;;;;;5014625;28;20038;-94
2022/02/06 00:28:07;;;;;;;11.77;2.17;;;7.50;99.90;;;;;;5009258;28;20132;-94
2022/02/06 00:30:50;;;;;;;10.93;1.92;;;7.40;99.90;;;;;;5022103;28;20169;-94
2022/02/06 00:33:36;;;;;;;10.45;1.65;;;7.40;99.90;;;;;;5029593;28;20022;-93
2022/02/06 00:41:14;;;;;;;12.35;2.92;;;7.40;99.90;;;;;;5013671;28;20416;-94
2022/02/06 00:43:40;;;;;;;13.90;2.97;;;7.40;99.90;;;;;;5031781;28;20045;-93
2022/02/06 00:46:08;;;;;;;19.60;2.95;;;7.40;99.90;;;;;;5032965;28;20029;-95
2022/02/06 00:48:38;;;;;;;14.40;2.50;;;7.40;99.90;;;;;;5027720;28;20429;-95
2022/02/06 00:54:02;;;;;;;8.93;2.05;;;7.40;99.90;;;;;;4987525;28;20049;-95
2022/02/06 00:56:29;;;;;;;9.05;2.22;;;7.40;99.90;;;;;;5031242;28;20034;-94
2022/02/06 00:58:54;;;;;;;15.13;2.50;;;7.40;99.90;;;;;;5032233;28;20029;-93
2022/02/06 01:01:20;;;;;;;7.72;1.83;;;7.40;99.90;;;;;;4996868;28;20050;-94
2022/02/06 01:03:46;;;;;;;16.90;2.65;;;7.40;99.90;;;;;;5008380;28;20084;-94
2022/02/06 01:06:12;;;;;;;7.53;1.45;;;7.50;99.90;;;;;;5012643;28;20073;-95
2022/02/06 01:08:38;;;;;;;11.45;2.58;;;7.50;99.90;;;;;;4993883;28;20482;-94
2022/02/06 01:11:08;;;;;;;10.57;2.25;;;7.50;99.90;;;;;;4999714;28;20026;-94
2022/02/06 01:16:23;;;;;;;12.50;2.80;;;7.50;99.90;;;;;;4991120;28;20038;-95
2022/02/06 01:18:57;;;;;;;15.80;2.90;;;7.50;99.90;;;;;;4994387;28;20031;-95
2022/02/06 01:21:40;;;;;;;12.13;2.08;;;7.50;99.90;;;;;;5006407;28;20475;-95
2022/02/06 01:24:14;;;;;;;;;;;7.50;99.90;;;;;;4999224;28;20039;-94
2022/02/06 01:26:55;;;;;;;17.08;2.60;;;7.50;99.90;;;;;;5015744;28;19916;-95
2022/02/06 01:29:35;;;;;;;11.82;2.10;;;7.50;99.90;;;;;;4980881;28;20026;-95
2022/02/06 01:32:09;;;;;;;9.77;2.20;;;7.40;99.90;;;;;;4997414;28;20058;-93
2022/02/06 01:34:42;;;;;;;12.18;2.17;;;7.50;99.90;;;;;;4997669;28;20062;-95
2022/02/06 01:37:23;;;;;;;16.30;2.17;;;7.50;99.90;;;;;;5012654;28;20073;-94
2022/02/06 01:42:30;;;;;;;12.77;1.92;;;7.50;99.90;;;;;;4997627;28;20403;-95
2022/02/06 01:45:55;;;;;;;10.85;1.48;;;7.50;99.90;;;;;;5009902;28;20042;-95
2022/02/06 02:07:17;;;;;;;7.28;1.23;;;7.60;99.90;;;;;;5034139;28;20064;-94
2022/02/06 02:10:09;;;;;;;7.82;1.42;;;7.60;99.90;;;;;;5034204;28;20048;-94
2022/02/06 02:20:50;;;;;;;8.98;2.05;;;7.60;99.90;;;;;;5036531;28;20053;-94
2022/02/06 02:23:29;;;;;;;8.38;1.38;;;7.60;99.90;;;;;;5034487;28;20061;-94
2022/02/06 02:26:24;;;;;;;10.68;1.85;;;7.60;99.90;;;;;;5037984;28;20025;-95
2022/02/06 02:47:37;;;;;;;8.20;1.40;;;7.50;99.90;;;;;;5050067;28;20031;-95
2022/02/06 02:50:15;;;;;;;9.27;1.73;;;7.50;99.90;;;;;;5048076;28;20151;-96
2022/02/06 03:01:07;;;;;;;7.65;1.30;;;7.50;99.90;;;;;;5047923;28;20094;-95
2022/02/06 03:03:36;;;;;;;6.68;1.95;;;7.40;99.90;;;;;;5033283;28;20057;-94
2022/02/06 03:06:06;;;;;;;7.25;1.40;;;7.40;99.90;;;;;;5043631;28;20085;-95
2022/02/06 03:08:35;;;;;;;8.25;1.75;;;7.40;99.90;;;;;;5021452;28;20033;-94
2022/02/06 03:11:05;;;;;;;8.40;1.90;;;7.40;99.90;;;;;;5020884;28;20026;-94
2022/02/06 03:19:02;;;;;;;6.10;1.52;;;7.40;99.90;;;;;;5043700;28;20017;-96
2022/02/06 03:21:39;;;;;;;7.45;1.60;;;7.40;99.90;;;;;;5034083;28;20056;-96
2022/02/06 03:24:18;;;;;;;8.35;1.23;;;7.40;99.90;;;;;;5023186;28;20040;-94
2022/02/06 03:26:46;;;;;;;11.25;2.03;;;7.40;99.90;;;;;;5035484;28;20017;-94
2022/02/06 03:29:14;;;;;;;12.50;2.08;;;7.40;99.90;;;;;;5027592;28;20026;-96
2022/02/06 03:31:40;;;;;;;6.25;1.70;;;7.40;99.90;;;;;;5021615;28;20057;-95
2022/02/06 03:34:06;;;;;;;9.55;2.25;;;7.30;99.90;;;;;;5028078;28;20033;-95
2022/02/06 03:36:32;;;;;;;5.97;1.00;;;7.40;99.90;;;;;;5025741;28;20975;-95
2022/02/06 03:38:57;;;;;;;5.25;1.17;;;7.40;99.90;;;;;;5020001;28;20042;-94
2022/02/06 03:41:25;;;;;;;6.10;1.60;;;7.40;99.90;;;;;;5020300;28;20017;-95
2022/02/06 03:46:34;;;;;;;4.30;1.50;;;7.30;99.90;;;;;;5037619;28;20119;-94
2022/02/06 03:49:08;;;;;;;6.28;1.70;;;7.40;99.90;;;;;;5015747;28;20099;-95
2022/02/06 03:51:36;;;;;;;8.02;1.77;;;7.40;99.90;;;;;;5016866;28;20025;-95
2022/02/06 03:54:03;;;;;;;7.40;1.33;;;7.40;99.90;;;;;;5016456;28;20061;-94
2022/02/06 03:56:31;;;;;;;8.82;1.10;;;7.40;99.90;;;;;;5019339;28;20500;-94
2022/02/06 03:58:58;;;;;;;7.40;2.13;;;7.30;99.90;;;;;;5018486;28;20022;-95
2022/02/06 04:01:23;;;;;;;8.18;1.35;;;7.40;99.90;;;;;;5017836;28;20075;-95
2022/02/06 04:03:49;;;;;;;8.73;1.38;;;7.40;99.90;;;;;;5016838;28;20033;-95
2022/02/06 04:06:15;;;;;;;5.05;1.60;;;7.40;99.90;;;;;;5022208;28;20025;-94
2022/02/06 04:08:42;;;;;;;4.65;1.15;;;7.40;99.90;;;;;;5035132;28;20028;-94
2022/02/06 04:11:13;;;;;;;7.80;1.75;;;7.40;99.90;;;;;;5016376;28;20022;-95
2022/02/06 04:13:53;;;;;;;3.08;1.25;;;7.40;99.90;;;;;;5018045;28;20026;-96
2022/02/06 04:16:26;;;;;;;5.88;1.50;;;7.40;99.90;;;;;;5015609;28;20034;-96
2022/02/06 04:19:04;;;;;;;6.45;1.55;;;7.40;99.90;;;;;;5020099;28;20030;-94
2022/02/06 04:21:31;;;;;;;8.13;2.30;;;7.40;99.90;;;;;;5041045;28;20029;-96
2022/02/06 04:23:56;;;;;;;5.95;1.73;;;7.40;99.90;;;;;;5027643;28;20132;-96
2022/02/06 04:26:26;;;;;;;11.40;2.40;;;7.40;99.90;;;;;;5027412;28;20068;-95
2022/02/06 04:28:53;;;;;;;6.28;1.88;;;7.40;99.90;;;;;;5027385;28;20033;-96
2022/02/06 04:31:19;;;;;;;9.35;2.13;;;7.40;99.90;;;;;;5025660;28;20029;-96
2022/02/06 04:33:44;;;;;;;6.70;1.60;;;7.40;99.90;;;;;;5028445;28;20040;-95
2022/02/06 04:36:15;;;;;;;5.40;1.80;;;7.40;99.90;;;;;;5025513;28;20020;-95
2022/02/06 04:38:53;;;;;;;9.70;1.80;;;7.40;99.90;;;;;;5048552;28;20101;-96
2022/02/06 04:47:47;;;;;;;8.02;2.35;;;7.50;99.90;;;;;;5049909;28;20040;-96
2022/02/06 04:53:13;;;;;;;5.30;1.70;;;7.50;99.90;;;;;;5040353;28;20051;-96
2022/02/06 04:56:03;;;;;;;6.18;1.70;;;7.40;99.90;;;;;;5032787;28;20037;-96
2022/02/06 05:11:22;;;;;;;7.38;1.73;;;7.50;99.90;;;;;;5041679;28;20056;-96
2022/02/06 05:28:40;;;;;;;13.85;4.03;;;7.80;99.90;;;;;;4980944;28;20085;-96
2022/02/06 05:31:10;;;;;;;11.82;3.10;;;7.80;99.90;;;;;;4993649;28;20025;-96
2022/02/06 05:33:48;;;;;;;6.78;2.65;;;7.80;99.90;;;;;;4980016;28;20041;-96
2022/02/06 05:36:15;;;;;;;11.60;3.58;;;7.80;99.90;;;;;;4995898;28;20031;-95
2022/02/06 05:38:50;;;;;;;10.55;3.47;;;7.80;99.90;;;;;;4996019;28;20019;-96
2022/02/06 05:41:15;;;;;;;8.32;3.20;;;7.80;99.90;;;;;;5055553;28;20037;-96
2022/02/06 05:43:41;;;;;;;6.30;3.35;;;7.90;99.90;;;;;;5041719;28;20052;-96
2022/02/06 05:46:06;;;;;;;8.40;3.50;;;7.90;99.90;;;;;;5057878;28;20055;-95
2022/02/06 05:48:32;;;;;;;7.43;3.20;;;7.80;99.90;;;;;;5056273;28;20048;-96
2022/02/06 05:50:58;;;;;;;10.68;3.38;;;7.80;99.90;;;;;;5062728;28;20054;-96
2022/02/06 05:53:23;;;;;;;11.75;3.75;;;7.90;99.90;;;;;;5053369;28;20052;-95
2022/02/06 05:55:49;;;;;;;6.00;3.20;;;7.80;99.90;;;;;;5055002;28;20033;-95
2022/02/06 05:58:14;;;;;;;9.23;3.97;;;7.90;99.90;;;;;;5057416;28;20020;-96
2022/02/06 06:00:40;;;;;;;6.50;3.90;;;7.80;99.90;;;;;;5046993;28;20053;-95
2022/02/06 06:03:08;;;;;;;11.43;3.95;;;7.80;99.90;;;;;;5025159;28;20034;-96
2022/02/06 06:05:34;;;;;;;9.75;3.67;;;7.80;99.90;;;;;;5037415;28;20010;-94
2022/02/06 06:07:59;;;;;;;8.63;4.45;;;7.80;99.90;;;;;;5034542;28;20056;-96
2022/02/06 06:10:25;;;;;;;7.72;3.88;;;7.80;99.90;;;;;;5015247;28;20029;-96
2022/02/06 06:12:50;;;;;;;9.15;3.97;;;7.90;99.90;;;;;;5019038;28;20025;-95
2022/02/06 06:15:16;;;;;;;9.20;3.38;;;7.80;99.90;;;;;;5039738;28;20025;-96
2022/02/06 06:17:41;;;;;;;6.97;3.70;;;7.80;99.90;;;;;;5038163;28;20025;-95
2022/02/06 06:20:14;;;;;;;6.68;3.85;;;7.80;99.90;;;;;;5035467;28;20036;-96
2022/02/06 06:22:40;;;;;;;8.45;3.80;;;7.80;99.90;;;;;;5028355;28;20033;-95
2022/02/06 06:25:07;;;;;;;10.32;4.22;;;7.80;99.90;;;;;;5018336;28;20071;-95
2022/02/06 06:27:33;;;;;;;8.13;4.28;;;7.80;99.90;;;;;;5022277;28;20060;-96
2022/02/06 06:30:00;;;;;;;7.63;3.65;;;7.90;99.90;;;;;;5017039;28;20140;-96
2022/02/06 06:32:26;;;;;;;7.88;3.97;;;7.90;99.90;;;;;;5013692;28;20053;-95
2022/02/06 06:34:54;;;;;;;6.15;3.58;;;7.90;99.90;;;;;;5032247;28;20081;-95
2022/02/06 06:37:20;;;;;;;8.43;4.28;;;7.80;99.90;;;;;;5008887;28;20034;-94
2022/02/06 06:39:48;;;;;;;7.60;4.00;;;7.80;99.90;;;;;;5004224;28;20037;-94
2022/02/06 06:42:14;;;;;;;8.02;4.28;;;7.80;99.90;;;;;;5029571;28;20025;-93
2022/02/06 06:44:41;;;;;;;9.88;4.63;;;7.80;99.90;;;;;;5013194;28;20038;-95
2022/02/06 06:47:07;;;;;;;6.13;3.85;;;7.80;99.90;;;;;;5010990;28;20029;-95
2022/02/06 06:49:33;;;;;;;8.20;4.85;;;7.80;99.90;;;;;;5018064;28;20033;-95
2022/02/06 06:51:59;;;;;;;7.68;4.32;;;7.80;99.90;;;;;;5019922;28;20025;-95
2022/02/06 06:54:33;;;;;;;8.63;4.22;;;7.80;99.90;;;;;;5017080;28;20025;-95
2022/02/06 06:57:04;;;;;;;10.30;4.35;;;7.80;99.90;;;;;;5015689;28;20040;-95
2022/02/06 07:04:50;;;;;;;7.90;4.37;;;7.80;99.90;;;;;;5022582;28;20033;-94
2022/02/06 07:07:17;;;;;;;9.25;4.63;;;7.80;99.90;;;;;;5009361;28;20025;-93
2022/02/06 07:09:42;;;;;;;7.57;4.75;;;7.80;99.90;;;;;;5031651;28;20040;-93
2022/02/06 07:12:10;;;;;;;5.88;4.10;;;7.80;99.90;;;;;;5012906;28;20494;-93
2022/02/06 07:14:36;;;;;;;7.32;4.25;;;7.80;99.90;;;;;;5014057;28;20025;-93
2022/02/06 07:17:03;;;;;;;9.10;4.43;;;7.90;99.90;;;;;;5032076;28;20495;-94
2022/02/06 07:19:28;;;;;;;5.90;4.43;;;7.90;99.90;;;;;;5013393;28;20021;-93
2022/02/06 07:21:55;;;;;;;8.70;3.97;;;7.90;99.90;;;;;;5013025;28;20033;-94
2022/02/06 07:24:21;;;;;;;7.50;4.22;;;7.90;99.90;;;;;;5012126;28;20112;-93
2022/02/06 07:26:50;;;;;;;10.93;4.50;;;7.90;99.90;;;;;;5014355;28;20029;-93
2022/02/06 07:29:17;;;;;;;8.27;4.25;;;7.90;99.90;;;;;;5014721;28;20029;-93
2022/02/06 07:31:45;;;;;;;8.68;5.13;;;7.90;99.90;;;;;;5012558;28;20037;-93
2022/02/06 07:34:10;;;;;;;9.93;5.28;;;7.90;99.90;;;;;;5028730;28;20099;-94
2022/02/06 07:36:36;;;;;;;6.05;4.60;;;7.90;99.90;;;;;;5016843;28;20026;-93
2022/02/06 07:39:02;;;;;;;9.75;5.65;;;8.00;99.90;;;;;;5014294;28;20041;-93
2022/02/06 07:41:27;;;;;;;9.27;5.53;;;8.00;99.90;;;;;;5014937;28;20026;-93
2022/02/06 07:43:53;;;;;;;10.25;5.97;;;8.00;99.90;;;;;;5014647;28;20401;-93
2022/02/06 07:46:23;;;;;;;9.10;5.88;;;8.00;99.90;;;;;;5014043;28;20116;-93
2022/02/06 07:48:48;;;;;;;11.35;6.65;;;8.00;99.90;;;;;;5013409;28;20025;-92
2022/02/06 07:51:14;;;;;;;11.20;6.80;;;8.10;99.90;;;;;;5020091;28;20036;-92
2022/02/06 07:53:39;;;;;;;10.43;6.20;;;8.10;99.90;;;;;;5016995;28;20033;-93
2022/02/06 07:56:05;;;;;;;8.20;5.93;;;8.10;99.90;;;;;;5031563;28;20029;-92
2022/02/06 07:58:30;;;;;;;10.63;6.57;;;8.10;99.90;;;;;;5018233;28;20029;-94
2022/02/06 08:00:56;;;;;;;10.38;6.25;;;8.10;99.90;;;;;;5017311;28;20519;-93
2022/02/06 08:03:24;;;;;;;13.98;6.70;;;8.10;99.90;;;;;;5034031;28;20233;-93
2022/02/06 08:05:50;;;;;;;9.88;6.18;;;8.10;99.90;;;;;;5018365;28;20057;-93
2022/02/06 08:08:16;;;;;;;10.10;6.00;;;8.10;99.90;;;;;;5018462;28;20030;-93
2022/02/06 08:10:42;;;;;;;10.30;5.65;;;8.20;99.90;;;;;;5018129;28;20026;-93
2022/02/06 08:13:09;;;;;;;9.75;6.20;;;8.20;99.90;;;;;;5016251;28;20054;-92
2022/02/06 08:15:35;;;;;;;8.55;6.20;;;8.20;99.90;;;;;;5016950;28;20022;-93
2022/02/06 08:18:01;;;;;;;8.80;5.70;;;8.20;99.90;;;;;;5015394;28;20500;-92
2022/02/06 08:20:26;;;;;;;6.50;4.72;;;8.20;99.90;;;;;;5033824;28;20068;-92
2022/02/06 08:22:52;;;;;;;6.20;4.05;;;8.20;99.90;;;;;;5018260;28;20076;-93
2022/02/06 08:25:18;;;;;;;7.05;5.28;;;8.20;99.90;;;;;;5017159;28;20160;-92
2022/02/06 08:27:44;;;;;;;8.25;4.30;;;8.20;99.90;;;;;;5017962;28;20021;-92
2022/02/06 08:30:11;;;;;;;6.07;4.45;;;8.20;99.90;;;;;;5017240;28;20071;-92
2022/02/06 08:32:38;;;;;;;6.30;3.38;;;8.20;99.90;;;;;;5013972;28;20033;-92
2022/02/06 08:35:06;;;;;;;7.93;3.40;;;8.20;99.90;;;;;;5007256;28;20029;-92
2022/02/06 08:37:32;;;;;;;2.60;1.75;;;8.20;99.90;;;;;;5016405;28;20382;-92
2022/02/06 08:39:57;;;;;;;5.63;2.50;;;8.20;99.90;;;;;;5016958;28;20057;-91
2022/02/06 08:42:23;;;;;;;3.15;2.00;;;8.20;99.90;;;;;;5017116;28;20045;-93
2022/02/06 08:44:48;;;;;;;3.47;1.65;;;8.20;99.90;;;;;;5016143;28;20041;-91
2022/02/06 08:47:16;;;;;;;4.75;2.05;;;8.20;99.90;;;;;;5017211;28;20050;-92
2022/02/06 08:49:42;;;;;;;3.13;1.60;;;8.20;99.90;;;;;;5018984;28;20037;-90
2022/02/06 08:52:09;;;;;;;2.90;1.70;;;8.20;99.90;;;;;;5037565;28;20017;-91
2022/02/06 08:54:37;;;;;;;4.95;1.90;;;8.20;99.90;;;;;;5016494;28;20021;-91
2022/02/06 08:57:16;;;;;;;3.75;2.03;;;8.20;99.90;;;;;;5017610;28;20065;-91
2022/02/06 08:59:41;;;;;;;3.80;1.90;;;8.20;99.90;;;;;;5008901;28;20495;-90
2022/02/06 09:02:07;;;;;;;3.75;2.28;;;8.20;99.90;;;;;;5017274;28;20021;-90
2022/02/06 09:04:32;;;;;;;3.85;1.65;;;8.20;99.90;;;;;;5016951;28;20030;-92
2022/02/06 09:07:01;;;;;;;5.90;2.35;;;8.20;99.90;;;;;;5017220;28;20113;-92
2022/02/06 09:09:28;;;;;;;4.38;1.88;;;8.20;99.90;;;;;;5034005;28;20490;-90
2022/02/06 09:11:55;;;;;;;6.10;2.65;;;8.20;99.90;;;;;;5018103;28;20393;-89
2022/02/06 09:14:23;;;;;;;6.75;2.58;;;8.20;99.90;;;;;;5016974;28;20022;-92
2022/02/06 09:16:49;;;;;;;4.32;1.63;;;8.30;99.90;;;;;;5017901;28;20028;-91
2022/02/06 09:19:15;;;;;;;4.03;2.10;;;8.30;99.90;;;;;;5016406;28;20029;-91
2022/02/06 09:21:41;;;;;;;4.82;2.28;;;8.30;99.90;;;;;;5015561;28;20428;-91
2022/02/06 09:24:09;;;;;;;3.40;1.75;;;8.30;99.90;;;;;;5016348;28;20037;-93
2022/02/06 09:26:35;;;;;;;7.63;2.20;;;8.30;99.90;;;;;;5017442;28;20089;-91
2022/02/06 09:29:02;;;;;;;5.80;2.55;;;8.30;99.90;;;;;;5034498;28;20034;-91
2022/02/06 09:31:28;;;;;;;4.93;1.95;;;8.40;99.90;;;;;;5034074;28;20033;-89
2022/02/06 09:36:19;;;;;;;6.40;2.00;;;8.40;99.90;;;;;;5027713;28;20021;-91
2022/02/06 09:38:45;;;;;;;6.55;2.00;;;8.40;99.90;;;;;;5027189;28;20045;-90
2022/02/06 09:41:11;;;;;;;6.38;1.92;;;8.50;99.90;;;;;;5033936;28;20018;-91
2022/02/06 09:43:37;;;;;;;3.75;1.75;;;8.40;99.90;;;;;;5011681;28;20041;-88
2022/02/06 09:46:04;;;;;;;5.35;1.10;;;8.50;99.90;;;;;;5017687;28;20027;-89
2022/02/06 09:48:31;;;;;;;3.28;1.33;;;8.50;99.90;;;;;;5015684;28;20033;-90
2022/02/06 09:50:58;;;;;;;4.00;1.08;;;8.50;99.90;;;;;;5012537;28;20547;-91
2022/02/06 09:53:28;;;;;;;4.50;1.38;;;8.50;99.90;;;;;;5015565;28;20112;-91
2022/02/06 09:55:56;;;;;;;5.35;1.05;;;8.50;99.90;;;;;;5010278;28;20037;-90
2022/02/06 10:00:54;;;;;;;4.40;0.80;;;8.60;99.90;;;;;;5032793;28;20072;-92
2022/02/06 10:03:22;;;;;;;3.15;0.70;;;8.60;99.90;;;;;;5013069;28;20107;-89
2022/02/06 10:05:49;;;;;;;3.72;0.88;;;8.60;99.90;;;;;;5019431;28;20025;-91
2022/02/06 10:08:20;;;;;;;4.68;0.90;;;8.60;99.90;;;;;;5015824;28;20049;-92
2022/02/06 10:11:03;;;;;;;3.00;0.70;;;8.60;99.90;;;;;;5033251;28;20029;-91
2022/02/06 10:13:34;;;;;;;4.32;0.70;;;8.60;99.90;;;;;;5024268;28;20413;-90
2022/02/06 10:16:00;;;;;;;3.47;0.60;;;8.60;99.90;;;;;;5008142;28;20049;-91
2022/02/06 10:18:27;;;;;;;5.38;0.93;;;8.60;99.90;;;;;;5009241;28;20121;-91
2022/02/06 10:20:54;;;;;;;3.05;0.82;;;8.60;99.90;;;;;;5026121;28;20473;-91
2022/02/06 10:23:35;;;;;;;2.00;0.60;;;8.60;99.90;;;;;;5030766;28;20037;-92
2022/02/06 10:26:09;;;;;;;5.03;0.82;;;8.60;99.90;;;;;;5012271;28;20021;-92
2022/02/06 10:28:44;;;;;;;1.80;0.70;;;8.60;99.90;;;;;;5009307;28;20049;-92
2022/02/06 10:31:11;;;;;;;2.70;0.70;;;8.60;99.90;;;;;;5025823;28;20021;-92
2022/02/06 10:33:52;;;;;;;3.35;0.50;;;8.60;99.90;;;;;;5026805;28;20127;-92
2022/02/06 10:36:23;;;;;;;2.88;0.80;;;8.60;99.90;;;;;;5029068;28;20022;-92
2022/02/06 10:39:04;;;;;;;3.72;0.70;;;8.60;99.90;;;;;;5024390;28;20038;-92
2022/02/06 10:41:31;;;;;;;3.63;0.70;;;8.60;99.90;;;;;;5023489;28;21388;-91
2022/02/06 10:44:09;;;;;;;3.67;0.77;;;8.60;99.90;;;;;;5034729;28;20081;-92
2022/02/06 10:46:58;;;;;;;5.10;1.23;;;8.60;99.90;;;;;;5010897;28;20048;-91
2022/02/06 10:49:25;;;;;;;4.63;1.00;;;8.60;99.90;;;;;;5014244;28;20481;-92
2022/02/06 10:52:01;;;;;;;6.70;0.73;;;8.60;99.90;;;;;;5025888;28;20041;-91
2022/02/06 10:54:30;;;;;;;3.35;0.60;;;8.60;99.90;;;;;;5024993;28;20036;-91
2022/02/06 10:57:13;;;;;;;3.80;0.60;;;8.60;99.90;;;;;;5009271;28;20029;-92
2022/02/06 10:59:45;;;;;;;2.78;0.50;;;8.60;99.90;;;;;;5019427;28;20147;-92
2022/02/06 11:02:31;;;;;;;2.30;0.50;;;8.60;99.90;;;;;;5023129;28;20426;-91
2022/02/06 11:05:14;;;;;;;2.30;0.50;;;8.50;99.90;;;;;;5022197;28;20041;-92
2022/02/06 11:07:58;;;;;;;3.58;0.57;;;8.50;99.90;;;;;;5013332;28;20087;-91
2022/02/06 11:10:25;;;;;;;2.28;0.40;;;8.50;99.90;;;;;;5012601;28;20029;-91
2022/02/06 11:12:55;;;;;;;3.13;0.77;;;8.60;99.90;;;;;;5024425;28;20033;-90
2022/02/06 11:15:24;;;;;;;3.80;0.77;;;8.60;99.90;;;;;;5013183;28;20121;-94
2022/02/06 11:18:05;;;;;;;3.40;0.60;;;8.70;99.90;;;;;;5013357;28;20030;-92
2022/02/06 11:20:31;;;;;;;3.03;0.50;;;8.70;99.90;;;;;;5011876;28;20034;-90
2022/02/06 11:23:03;;;;;;;1.88;0.40;;;8.70;99.90;;;;;;5012967;28;20555;-89
2022/02/06 11:25:30;;;;;;;2.97;0.50;;;8.70;99.90;;;;;;5030733;28;20477;-89
2022/02/06 11:27:56;;;;;;;2.95;0.60;;;8.60;99.90;;;;;;5037663;28;20547;-89
2022/02/06 11:30:22;;;;;;;2.33;0.50;;;8.60;99.90;;;;;;5013788;28;20100;-90
2022/02/06 11:32:48;;;;;;;1.40;0.40;;;8.60;99.90;;;;;;5035536;28;20501;-89
2022/02/06 11:35:18;;;;;;;3.58;0.65;;;8.60;99.90;;;;;;5020217;28;20383;-89
2022/02/06 11:44:47;;;;;;;0.90;0.30;;;8.50;99.90;;;;;;4966479;28;20037;-89
2022/02/06 11:47:25;;;;;;;2.25;0.60;;;8.50;99.90;;;;;;4958953;28;20039;-89
2022/02/06 11:49:54;;;;;;;3.88;0.57;;;8.50;99.90;;;;;;5005081;28;20075;-89
2022/02/06 11:52:20;;;;;;;3.05;0.50;;;8.50;99.90;;;;;;5008671;28;20044;-93
2022/02/06 11:54:48;;;;;;;7.03;0.60;;;8.40;99.90;;;;;;5021177;28;20025;-89
2022/02/06 12:00:03;;;;;;;3.25;0.20;;;7.90;99.90;;;;;;5038058;28;20029;-91
2022/02/06 12:02:33;;;;;;;1.05;0.10;;;7.50;99.90;;;;;;5020195;28;20036;-91
2022/02/06 12:05:12;;;;;;;1.13;0.00;;;7.30;99.90;;;;;;5017978;28;20040;-92
2022/02/06 12:08:03;;;;;;;0.82;0.10;;;7.00;99.90;;;;;;5030857;28;20112;-90
2022/02/06 12:10:35;;;;;;;0.30;0.05;;;6.70;99.90;;;;;;5015958;28;20124;-91
2022/02/06 12:13:20;;;;;;;0.55;0.10;;;6.60;99.90;;;;;;5029358;28;20033;-90
2022/02/06 12:16:04;;;;;;;0.35;0.00;;;6.40;99.90;;;;;;5015294;28;20029;-91
2022/02/06 12:18:35;;;;;;;2.53;0.10;;;6.30;99.90;;;;;;5019358;28;20057;-91
2022/02/06 12:21:12;;;;;;;0.40;0.00;;;6.10;99.90;;;;;;5016427;28;20566;-89
2022/02/06 12:23:46;;;;;;;3.67;0.10;;;6.10;99.90;;;;;;5012120;28;20060;-91
2022/02/06 12:26:28;;;;;;;1.73;0.00;;;6.00;99.90;;;;;;5014960;28;20032;-92
2022/02/06 12:29:02;;;;;;;2.80;0.03;;;6.00;99.90;;;;;;5032429;28;20528;-90
2022/02/06 12:31:30;;;;;;;1.42;0.10;;;6.00;99.90;;;;;;5017104;28;20819;-90
2022/02/06 12:39:27;;;;;;;3.45;0.20;;;6.10;99.90;;;;;;5032678;28;20196;-91
2022/02/06 12:41:55;;;;;;;1.60;0.10;;;6.20;99.90;;;;;;5014991;28;20033;-91
2022/02/06 12:44:24;;;;;;;1.75;0.10;;;6.20;99.90;;;;;;5016924;28;20033;-92
2022/02/06 12:46:50;;;;;;;1.73;0.10;;;6.20;99.90;;;;;;5014308;28;20036;-93
2022/02/06 12:49:21;;;;;;;2.03;0.20;;;6.30;99.90;;;;;;5014572;28;20044;-93
2022/02/06 12:51:47;;;;;;;2.28;0.20;;;6.30;99.90;;;;;;5015891;28;20036;-93
2022/02/06 12:54:16;;;;;;;3.13;0.20;;;6.40;99.90;;;;;;5016179;28;20037;-93
2022/02/06 12:56:43;;;;;;;2.13;0.20;;;6.40;99.90;;;;;;5016455;28;20025;-92
2022/02/06 12:59:15;;;;;;;1.65;0.20;;;6.50;99.90;;;;;;5015398;28;20409;-92
2022/02/06 13:01:44;;;;;;;5.97;0.20;;;6.50;99.90;;;;;;5025864;28;20094;-92
2022/02/06 13:04:18;;;;;;;4.20;0.70;;;6.50;99.90;;;;;;5008944;28;20045;-92
2022/02/06 13:06:46;;;;;;;6.03;0.50;;;6.60;99.90;;;;;;5007301;28;20038;-92
2022/02/06 13:09:27;;;;;;;3.10;0.10;;;6.70;99.90;;;;;;5029485;28;20026;-93
2022/02/06 13:15:23;;;;;;;8.00;1.00;;;6.80;99.90;;;;;;4965890;28;20116;-91
2022/02/06 13:33:48;;;;;;;4.63;0.85;;;7.10;99.90;;;;;;5013874;28;20022;-90
2022/02/06 13:38:50;;;;;;;4.93;0.20;;;7.20;99.90;;;;;;5013599;28;20026;-91
2022/02/06 13:41:19;;;;;;;7.65;0.35;;;7.20;99.90;;;;;;5027825;28;20026;-91
2022/02/06 13:43:45;;;;;;;5.63;0.30;;;7.20;99.90;;;;;;5007738;28;20042;-90
2022/02/06 13:46:13;;;;;;;5.38;0.30;;;7.20;99.90;;;;;;5010352;28;20029;-90
2022/02/06 13:48:38;;;;;;;10.13;0.82;;;7.30;99.90;;;;;;5008663;28;20026;-89
2022/02/06 13:51:07;;;;;;;5.10;0.30;;;7.20;99.90;;;;;;5022375;28;20030;-90
2022/02/06 13:53:35;;;;;;;8.43;0.30;;;7.30;99.90;;;;;;5009533;28;20075;-90
2022/02/06 13:56:03;;;;;;;6.38;0.40;;;7.30;99.90;;;;;;5011079;28;20535;-89
2022/02/06 13:58:29;;;;;;;5.93;0.40;;;7.30;99.90;;;;;;5024040;28;20474;-89
2022/02/06 14:01:07;;;;;;;5.90;0.70;;;7.40;99.90;;;;;;4996696;28;20042;-90
2022/02/06 14:03:46;;;;;;;12.90;0.38;;;7.40;99.90;;;;;;5003475;28;20633;-91
2022/02/06 14:06:14;;;;;;;8.10;0.55;;;7.40;99.90;;;;;;5005058;28;20034;-91
2022/02/06 14:09:07;;;;;;;7.20;0.40;;;7.50;99.90;;;;;;4991807;28;20049;-88
2022/02/06 14:11:34;;;;;;;7.05;0.35;;;7.50;99.90;;;;;;5007308;28;20125;-89
2022/02/06 14:14:18;;;;;;;10.77;0.80;;;7.50;99.90;;;;;;4990690;28;20018;-89
2022/02/06 14:16:47;;;;;;;13.45;0.77;;;7.50;99.90;;;;;;5007132;28;20108;-88
2022/02/06 14:19:15;;;;;;;8.35;0.90;;;7.50;99.90;;;;;;4995531;28;20038;-90
2022/02/06 14:21:47;;;;;;;6.80;0.30;;;7.50;99.90;;;;;;4991170;28;20073;-90
2022/02/06 14:24:12;;;;;;;9.48;0.47;;;7.60;99.90;;;;;;4993698;28;20030;-89
2022/02/06 14:27:04;;;;;;;15.35;0.50;;;7.60;99.90;;;;;;4990932;28;20080;-90
2022/02/06 14:29:31;;;;;;;9.27;0.67;;;7.60;99.90;;;;;;4992967;28;20053;-88
2022/02/06 14:32:10;;;;;;;10.25;0.50;;;7.60;99.90;;;;;;4992879;28;20026;-89
2022/02/06 14:34:38;;;;;;;8.07;0.63;;;7.60;99.90;;;;;;4987744;28;20030;-88
2022/02/06 14:37:15;;;;;;;3.75;0.40;;;7.70;99.90;;;;;;4990898;28;20053;-89
2022/02/06 14:40:28;;;;;;;3.13;0.20;;;7.70;99.90;;;;;;5007709;28;20088;-88
2022/02/06 14:42:57;;;;;;;;;;;7.70;99.90;;;;;;4970344;28;20407;-89
2022/02/06 14:45:23;;;;;;;4.13;0.40;;;7.70;99.90;;;;;;4990105;28;19918;-88
2022/02/06 14:47:48;;;;;;;6.65;0.43;;;7.70;99.90;;;;;;5007674;28;20472;-88
2022/02/06 14:50:19;;;;;;;6.82;0.38;;;7.70;99.90;;;;;;5011016;28;20030;-88
2022/02/06 14:52:46;;;;;;;8.70;0.50;;;7.80;99.90;;;;;;4992202;28;20062;-88
2022/02/06 14:55:13;;;;;;;6.60;0.40;;;7.70;99.90;;;;;;5007462;28;20026;-87
2022/02/06 14:57:39;;;;;;;5.55;0.45;;;7.80;99.90;;;;;;4990406;28;20490;-88
2022/02/06 15:00:07;;;;;;;5.38;0.40;;;7.70;99.90;;;;;;4999988;28;20045;-88
2022/02/06 15:02:33;;;;;;;6.78;0.40;;;7.70;99.90;;;;;;5031627;28;20034;-88
2022/02/06 15:04:59;;;;;;;4.80;0.30;;;7.70;99.90;;;;;;5012578;28;20048;-88
2022/02/06 15:07:26;;;;;;;8.02;0.85;;;7.70;99.90;;;;;;5014220;28;20116;-88
2022/02/06 15:09:52;;;;;;;3.72;0.32;;;7.80;99.90;;;;;;5030427;28;20073;-89
2022/02/06 15:12:17;;;;;;;8.32;0.43;;;7.80;99.90;;;;;;5013989;28;20049;-88
2022/02/06 15:14:43;;;;;;;6.35;0.30;;;7.70;99.90;;;;;;5014482;28;20033;-92
2022/02/06 15:17:10;;;;;;;4.72;0.30;;;7.70;99.90;;;;;;5013878;28;20063;-88
2022/02/06 15:19:37;;;;;;;3.22;0.30;;;7.70;99.90;;;;;;5011868;28;20026;-88
2022/02/06 15:22:03;;;;;;;5.28;0.40;;;7.70;99.90;;;;;;5014452;28;20448;-89
2022/02/06 15:24:28;;;;;;;7.72;0.40;;;7.80;99.90;;;;;;5013723;28;20041;-89
2022/02/06 15:26:54;;;;;;;6.53;0.60;;;7.80;99.90;;;;;;5009116;28;20044;-89
2022/02/06 15:29:20;;;;;;;3.63;0.35;;;7.80;99.90;;;;;;5007655;28;20022;-90
2022/02/06 15:31:46;;;;;;;3.08;0.30;;;7.80;99.90;;;;;;5028935;28;20022;-89
2022/02/06 15:34:12;;;;;;;9.40;0.45;;;7.80;99.90;;;;;;5009408;28;20025;-88
2022/02/06 15:36:39;;;;;;;4.53;0.75;;;7.80;99.90;;;;;;5011446;28;20030;-89
2022/02/06 15:39:33;;;;;;;4.40;0.60;;;7.90;99.90;;;;;;5003770;28;20116;-89
2022/02/06 15:41:59;;;;;;;3.60;0.43;;;7.90;99.90;;;;;;5022055;28;20036;-89
2022/02/06 15:44:25;;;;;;;24.73;1.17;;;7.90;99.90;;;;;;5010472;28;20053;-89
2022/02/06 15:46:51;;;;;;;4.82;0.30;;;7.90;99.90;;;;;;5004689;28;20030;-89
2022/02/06 15:49:17;;;;;;;5.90;0.50;;;7.90;99.90;;;;;;5012373;28;20033;-87
2022/02/06 15:51:43;;;;;;;6.90;0.40;;;7.90;99.90;;;;;;5010615;28;20174;-90